MMSD/SJD METAR and TAF weather

Enter ICAO airport designator
Station Type Date Time Source
MMSD METAR 2021/05/14 03:53 UTC NOAA

MMSD 140353Z 30005KT 8SM SKC 30/01 A2987 RMK MSGTX MMMX


Station Type Date Time Source
MMSD Decoded METAR 2021/05/14 03:53 UTC NOAA

San Jose Del Cabo , Mexico (MMSD) 23-09N 109-42W
May 13, 2021 - 11:53 PM EDT / 2021.05.14 0353 UTC
Wind: from the WNW (300 degrees) at 6 MPH (5 KT):0
Visibility: 8 mile(s):0
Sky conditions: clear
Temperature: 86 F (30 C)
Dew Point: 33 F (1 C)
Relative Humidity: 15%
Pressure (altimeter): 29.87 in. Hg (1011 hPa)
ob: MMSD 140353Z 30005KT 8SM SKC 30/01 A2987 RMK MSGTX MMMX
cycle: 4

Station Type Date Time Source
MMSD TAF 2021/05/14 06:36 UTC NOAA

TAF TAF MMSD 140333Z 1406/1506 30008KT P6SM SCT200
FM141600 16012KT P6SM SCT200
FM150300 30008KT P6SM SCT200

Example: see airport list